sensor_id;sensor_type;location;lat;lon;timestamp;pressure;altitude;pressure_sealevel;temperature;humidity
25232;BME280;13176;51.140;6.290;2022-07-29T00:01:43;100795.63;;;24.86;38.76
25232;BME280;13176;51.140;6.290;2022-07-29T00:04:10;100824.69;;;25.03;38.73
25232;BME280;13176;51.140;6.290;2022-07-29T00:06:37;100723.22;;;24.41;38.81
25232;BME280;13176;51.140;6.290;2022-07-29T00:09:04;100812.53;;;24.87;38.72
25232;BME280;13176;51.140;6.290;2022-07-29T00:11:31;100721.13;;;24.33;39.56
25232;BME280;13176;51.140;6.290;2022-07-29T00:13:57;100735.00;;;24.38;39.53
25232;BME280;13176;51.140;6.290;2022-07-29T00:16:23;100758.47;;;24.46;39.53
25232;BME280;13176;51.140;6.290;2022-07-29T00:18:50;100767.88;;;24.51;39.76
25232;BME280;13176;51.140;6.290;2022-07-29T00:21:19;100817.75;;;24.76;39.73
25232;BME280;13176;51.140;6.290;2022-07-29T00:23:45;100797.44;;;24.61;39.86
25232;BME280;13176;51.140;6.290;2022-07-29T00:26:12;100728.25;;;24.21;39.74
25232;BME280;13176;51.140;6.290;2022-07-29T00:28:38;100718.00;;;24.15;39.67
25232;BME280;13176;51.140;6.290;2022-07-29T00:31:04;100789.56;;;24.59;39.94
25232;BME280;13176;51.140;6.290;2022-07-29T00:33:31;100751.72;;;24.40;40.08
25232;BME280;13176;51.140;6.290;2022-07-29T00:35:58;100764.25;;;24.52;40.17
25232;BME280;13176;51.140;6.290;2022-07-29T00:38:24;100769.81;;;24.49;40.22
25232;BME280;13176;51.140;6.290;2022-07-29T00:40:51;100755.38;;;24.39;39.67
25232;BME280;13176;51.140;6.290;2022-07-29T00:43:17;100766.13;;;24.26;40.54
25232;BME280;13176;51.140;6.290;2022-07-29T00:45:44;100780.84;;;24.19;40.84
25232;BME280;13176;51.140;6.290;2022-07-29T00:48:10;100697.94;;;23.58;41.02
25232;BME280;13176;51.140;6.290;2022-07-29T00:50:37;100681.06;;;23.45;41.39
25232;BME280;13176;51.140;6.290;2022-07-29T00:53:06;100776.53;;;24.04;41.16
25232;BME280;13176;51.140;6.290;2022-07-29T00:55:33;100723.97;;;23.67;41.32
25232;BME280;13176;51.140;6.290;2022-07-29T00:58:00;100762.91;;;23.96;41.27
25232;BME280;13176;51.140;6.290;2022-07-29T01:00:30;100763.00;;;23.94;41.77
25232;BME280;13176;51.140;6.290;2022-07-29T01:02:56;100782.97;;;24.01;41.70
25232;BME280;13176;51.140;6.290;2022-07-29T01:05:25;100683.16;;;23.40;41.88
25232;BME280;13176;51.140;6.290;2022-07-29T01:08:14;100778.06;;;24.08;41.49
25232;BME280;13176;51.140;6.290;2022-07-29T01:10:42;100721.97;;;23.70;41.51
25232;BME280;13176;51.140;6.290;2022-07-29T01:13:10;100670.34;;;23.32;41.75
25232;BME280;13176;51.140;6.290;2022-07-29T01:15:43;100795.31;;;23.90;41.71
25232;BME280;13176;51.140;6.290;2022-07-29T01:18:28;100820.13;;;23.64;41.98
25232;BME280;13176;51.140;6.290;2022-07-29T01:24:02;100850.09;;;22.85;43.55
25232;BME280;13176;51.140;6.290;2022-07-29T01:26:52;100849.72;;;22.91;43.38
25232;BME280;13176;51.140;6.290;2022-07-29T01:37:23;100810.91;;;23.29;42.13
25232;BME280;13176;51.140;6.290;2022-07-29T01:39:54;100814.16;;;23.20;42.02
25232;BME280;13176;51.140;6.290;2022-07-29T01:42:34;100820.94;;;23.38;41.76
25232;BME280;13176;51.140;6.290;2022-07-29T01:45:15;100799.75;;;23.36;41.66
25232;BME280;13176;51.140;6.290;2022-07-29T01:47:45;100826.84;;;23.43;41.73
25232;BME280;13176;51.140;6.290;2022-07-29T01:50:16;100822.84;;;23.50;41.80
25232;BME280;13176;51.140;6.290;2022-07-29T01:52:47;100782.56;;;23.14;41.63
25232;BME280;13176;51.140;6.290;2022-07-29T01:55:17;100812.56;;;23.44;41.73
25232;BME280;13176;51.140;6.290;2022-07-29T01:57:47;100820.94;;;23.52;41.94
25232;BME280;13176;51.140;6.290;2022-07-29T02:00:15;100801.09;;;23.29;41.79
25232;BME280;13176;51.140;6.290;2022-07-29T02:02:44;100780.28;;;23.22;42.10
25232;BME280;13176;51.140;6.290;2022-07-29T02:05:14;100810.66;;;23.46;41.86
25232;BME280;13176;51.140;6.290;2022-07-29T02:07:42;100787.97;;;23.26;42.20
25232;BME280;13176;51.140;6.290;2022-07-29T02:10:10;100745.28;;;23.00;42.38
25232;BME280;13176;51.140;6.290;2022-07-29T02:12:39;100782.97;;;23.08;42.47
25232;BME280;13176;51.140;6.290;2022-07-29T02:15:07;100784.94;;;23.18;42.93
25232;BME280;13176;51.140;6.290;2022-07-29T02:17:46;100740.38;;;22.94;42.85
25232;BME280;13176;51.140;6.290;2022-07-29T02:20:15;100795.50;;;23.20;42.81
25232;BME280;13176;51.140;6.290;2022-07-29T02:22:44;100815.38;;;23.14;43.18
25232;BME280;13176;51.140;6.290;2022-07-29T02:25:12;100794.72;;;23.04;43.65
25232;BME280;13176;51.140;6.290;2022-07-29T02:27:41;100801.09;;;23.15;43.40
25232;BME280;13176;51.140;6.290;2022-07-29T02:30:09;100704.44;;;22.59;43.65
25232;BME280;13176;51.140;6.290;2022-07-29T02:32:37;100788.28;;;23.08;43.99
25232;BME280;13176;51.140;6.290;2022-07-29T02:35:08;100794.75;;;23.18;44.36
25232;BME280;13176;51.140;6.290;2022-07-29T02:37:36;100801.41;;;23.11;44.33
25232;BME280;13176;51.140;6.290;2022-07-29T02:40:04;100782.78;;;22.83;45.00
25232;BME280;13176;51.140;6.290;2022-07-29T02:42:32;100704.03;;;22.09;49.15
25232;BME280;13176;51.140;6.290;2022-07-29T02:45:01;100811.16;;;22.25;51.54
25232;BME280;13176;51.140;6.290;2022-07-29T02:47:34;100764.28;;;21.35;55.86
25232;BME280;13176;51.140;6.290;2022-07-29T02:50:17;100823.50;;;21.21;58.89
25232;BME280;13176;51.140;6.290;2022-07-29T02:52:52;100821.47;;;20.77;62.75
25232;BME280;13176;51.140;6.290;2022-07-29T02:55:30;100832.84;;;20.47;66.09
25232;BME280;13176;51.140;6.290;2022-07-29T02:58:02;100819.38;;;20.17;66.49
25232;BME280;13176;51.140;6.290;2022-07-29T03:00:31;100815.97;;;19.97;68.22
25232;BME280;13176;51.140;6.290;2022-07-29T03:03:01;100776.31;;;19.61;68.94
25232;BME280;13176;51.140;6.290;2022-07-29T03:05:30;100745.41;;;19.44;70.04
25232;BME280;13176;51.140;6.290;2022-07-29T03:08:00;100770.84;;;19.64;69.17
25232;BME280;13176;51.140;6.290;2022-07-29T03:10:27;100797.56;;;20.29;68.80
25232;BME280;13176;51.140;6.290;2022-07-29T03:12:55;100760.81;;;20.39;66.51
25232;BME280;13176;51.140;6.290;2022-07-29T03:15:22;100768.09;;;20.18;65.80
25232;BME280;13176;51.140;6.290;2022-07-29T03:17:51;100783.94;;;20.52;65.13
25232;BME280;13176;51.140;6.290;2022-07-29T03:20:18;100780.19;;;20.56;65.57
25232;BME280;13176;51.140;6.290;2022-07-29T03:22:45;100739.91;;;20.33;64.73
25232;BME280;13176;51.140;6.290;2022-07-29T03:25:16;100780.19;;;20.56;64.79
25232;BME280;13176;51.140;6.290;2022-07-29T03:27:43;100778.47;;;20.55;66.00
25232;BME280;13176;51.140;6.290;2022-07-29T03:30:11;100764.56;;;20.67;65.85
25232;BME280;13176;51.140;6.290;2022-07-29T03:32:43;100737.34;;;20.31;66.06
25232;BME280;13176;51.140;6.290;2022-07-29T03:35:11;100730.75;;;20.06;65.79
25232;BME280;13176;51.140;6.290;2022-07-29T03:37:37;100702.69;;;19.85;66.22
25232;BME280;13176;51.140;6.290;2022-07-29T03:40:07;100765.19;;;20.23;67.61
25232;BME280;13176;51.140;6.290;2022-07-29T03:42:36;100774.88;;;20.56;68.61
25232;BME280;13176;51.140;6.290;2022-07-29T03:45:07;100801.97;;;20.78;66.06
25232;BME280;13176;51.140;6.290;2022-07-29T03:47:39;100777.22;;;20.45;69.52
25232;BME280;13176;51.140;6.290;2022-07-29T03:50:18;100803.59;;;20.48;71.43
25232;BME280;13176;51.140;6.290;2022-07-29T03:52:47;100802.34;;;20.55;72.03
25232;BME280;13176;51.140;6.290;2022-07-29T03:55:14;100793.16;;;20.45;71.23
25232;BME280;13176;51.140;6.290;2022-07-29T03:57:41;100798.19;;;20.34;71.31
25232;BME280;13176;51.140;6.290;2022-07-29T04:00:09;100804.41;;;20.16;72.53
25232;BME280;13176;51.140;6.290;2022-07-29T04:02:37;100775.16;;;19.84;75.03
25232;BME280;13176;51.140;6.290;2022-07-29T04:05:11;100757.75;;;19.61;77.45
25232;BME280;13176;51.140;6.290;2022-07-29T04:07:39;100802.97;;;19.92;77.04
25232;BME280;13176;51.140;6.290;2022-07-29T04:10:06;100799.53;;;19.90;78.38
25232;BME280;13176;51.140;6.290;2022-07-29T04:12:33;100798.13;;;19.83;77.49
25232;BME280;13176;51.140;6.290;2022-07-29T04:15:00;100769.34;;;19.59;77.31
25232;BME280;13176;51.140;6.290;2022-07-29T04:17:26;100760.03;;;19.69;76.33
25232;BME280;13176;51.140;6.290;2022-07-29T04:19:52;100777.78;;;20.02;78.02
25232;BME280;13176;51.140;6.290;2022-07-29T04:22:19;100770.66;;;20.20;77.51
25232;BME280;13176;51.140;6.290;2022-07-29T04:24:45;100786.38;;;20.57;76.90
25232;BME280;13176;51.140;6.290;2022-07-29T04:27:12;100797.94;;;20.71;74.81
25232;BME280;13176;51.140;6.290;2022-07-29T04:29:38;100791.53;;;20.75;75.41
25232;BME280;13176;51.140;6.290;2022-07-29T04:32:22;100770.81;;;20.66;74.45
25232;BME280;13176;51.140;6.290;2022-07-29T04:34:49;100802.91;;;20.77;75.95
25232;BME280;13176;51.140;6.290;2022-07-29T04:37:15;100808.84;;;20.82;76.78
25232;BME280;13176;51.140;6.290;2022-07-29T04:39:42;100782.31;;;20.82;76.72
25232;BME280;13176;51.140;6.290;2022-07-29T04:42:08;100803.50;;;20.99;76.50
25232;BME280;13176;51.140;6.290;2022-07-29T04:44:34;100797.06;;;20.87;75.66
25232;BME280;13176;51.140;6.290;2022-07-29T04:47:07;100762.06;;;20.64;75.42
25232;BME280;13176;51.140;6.290;2022-07-29T04:49:34;100755.72;;;20.67;75.74
25232;BME280;13176;51.140;6.290;2022-07-29T04:52:00;100769.78;;;20.68;75.80
25232;BME280;13176;51.140;6.290;2022-07-29T04:54:26;100791.78;;;20.70;75.63
25232;BME280;13176;51.140;6.290;2022-07-29T04:56:53;100748.44;;;20.22;77.46
25232;BME280;13176;51.140;6.290;2022-07-29T04:59:19;100776.63;;;20.40;78.13
25232;BME280;13176;51.140;6.290;2022-07-29T05:01:46;100761.47;;;20.42;77.04
25232;BME280;13176;51.140;6.290;2022-07-29T05:04:12;100767.97;;;20.37;77.57
25232;BME280;13176;51.140;6.290;2022-07-29T05:06:39;100769.78;;;20.36;78.10
25232;BME280;13176;51.140;6.290;2022-07-29T05:09:06;100746.88;;;20.18;78.63
25232;BME280;13176;51.140;6.290;2022-07-29T05:11:32;100738.25;;;20.15;78.38
25232;BME280;13176;51.140;6.290;2022-07-29T05:13:59;100706.38;;;19.99;77.81
25232;BME280;13176;51.140;6.290;2022-07-29T05:16:25;100779.72;;;20.48;78.84
25232;BME280;13176;51.140;6.290;2022-07-29T05:18:52;100779.72;;;20.65;79.04
25232;BME280;13176;51.140;6.290;2022-07-29T05:21:18;100786.47;;;20.70;78.98
25232;BME280;13176;51.140;6.290;2022-07-29T05:23:45;100741.81;;;20.46;77.73
25232;BME280;13176;51.140;6.290;2022-07-29T05:26:11;100653.25;;;20.02;77.30
25232;BME280;13176;51.140;6.290;2022-07-29T05:28:38;100749.44;;;20.69;78.06
25232;BME280;13176;51.140;6.290;2022-07-29T05:31:04;100763.53;;;20.69;78.55
25232;BME280;13176;51.140;6.290;2022-07-29T05:33:31;100746.84;;;20.67;77.92
25232;BME280;13176;51.140;6.290;2022-07-29T05:36:03;100759.50;;;20.78;77.58
25232;BME280;13176;51.140;6.290;2022-07-29T05:38:31;100787.47;;;20.85;76.21
25232;BME280;13176;51.140;6.290;2022-07-29T05:40:58;100786.78;;;20.81;76.88
25232;BME280;13176;51.140;6.290;2022-07-29T05:43:29;100796.66;;;20.78;76.86
25232;BME280;13176;51.140;6.290;2022-07-29T05:45:55;100798.38;;;20.79;77.06
25232;BME280;13176;51.140;6.290;2022-07-29T05:48:22;100794.00;;;20.78;75.79
25232;BME280;13176;51.140;6.290;2022-07-29T05:50:48;100850.22;;;21.34;72.44
25232;BME280;13176;51.140;6.290;2022-07-29T05:53:15;100824.31;;;21.06;73.63
25232;BME280;13176;51.140;6.290;2022-07-29T05:55:45;100845.47;;;21.08;74.33
25232;BME280;13176;51.140;6.290;2022-07-29T05:58:12;100851.44;;;20.96;75.48
25232;BME280;13176;51.140;6.290;2022-07-29T06:00:38;100842.41;;;20.83;76.17
25232;BME280;13176;51.140;6.290;2022-07-29T06:03:05;100813.41;;;20.63;75.84
25232;BME280;13176;51.140;6.290;2022-07-29T06:05:31;100831.72;;;20.67;77.09
25232;BME280;13176;51.140;6.290;2022-07-29T06:07:58;100831.88;;;20.65;77.10
25232;BME280;13176;51.140;6.290;2022-07-29T06:10:24;100873.44;;;20.98;77.64
25232;BME280;13176;51.140;6.290;2022-07-29T06:12:52;100876.56;;;21.06;77.58
25232;BME280;13176;51.140;6.290;2022-07-29T06:15:19;100861.53;;;20.89;77.61
25232;BME280;13176;51.140;6.290;2022-07-29T06:17:45;100836.34;;;20.64;78.30
25232;BME280;13176;51.140;6.290;2022-07-29T06:20:27;100890.47;;;20.94;77.78
25232;BME280;13176;51.140;6.290;2022-07-29T06:22:56;100883.91;;;21.01;78.47
25232;BME280;13176;51.140;6.290;2022-07-29T06:25:22;100842.47;;;21.14;76.27
25232;BME280;13176;51.140;6.290;2022-07-29T06:27:49;100854.03;;;21.13;78.13
25232;BME280;13176;51.140;6.290;2022-07-29T06:30:15;100854.31;;;21.24;77.63
25232;BME280;13176;51.140;6.290;2022-07-29T06:32:42;100837.53;;;21.08;76.50
25232;BME280;13176;51.140;6.290;2022-07-29T06:35:09;100861.00;;;21.31;77.11
25232;BME280;13176;51.140;6.290;2022-07-29T06:37:56;100824.44;;;21.36;73.84
25232;BME280;13176;51.140;6.290;2022-07-29T06:40:25;100832.56;;;21.33;74.47
25232;BME280;13176;51.140;6.290;2022-07-29T06:43:10;100865.81;;;21.55;74.08
25232;BME280;13176;51.140;6.290;2022-07-29T06:45:36;100871.16;;;21.71;72.84
25232;BME280;13176;51.140;6.290;2022-07-29T06:48:05;100840.09;;;21.40;73.47
25232;BME280;13176;51.140;6.290;2022-07-29T06:50:32;100837.28;;;21.28;74.63
25232;BME280;13176;51.140;6.290;2022-07-29T06:52:58;100827.59;;;21.27;73.51
25232;BME280;13176;51.140;6.290;2022-07-29T06:55:25;100817.84;;;21.12;75.09
25232;BME280;13176;51.140;6.290;2022-07-29T06:57:51;100840.75;;;21.13;75.59
25232;BME280;13176;51.140;6.290;2022-07-29T07:00:18;100815.31;;;20.93;76.02
25232;BME280;13176;51.140;6.290;2022-07-29T07:02:44;100837.53;;;21.08;75.19
25232;BME280;13176;51.140;6.290;2022-07-29T07:05:12;100859.41;;;20.96;76.77
25232;BME280;13176;51.140;6.290;2022-07-29T07:07:39;100866.25;;;21.00;76.39
25232;BME280;13176;51.140;6.290;2022-07-29T07:10:05;100840.97;;;20.76;78.02
25232;BME280;13176;51.140;6.290;2022-07-29T07:12:32;100821.81;;;20.71;77.97
25232;BME280;13176;51.140;6.290;2022-07-29T07:14:58;100853.47;;;20.91;77.93
25232;BME280;13176;51.140;6.290;2022-07-29T07:17:25;100835.94;;;20.88;77.11
25232;BME280;13176;51.140;6.290;2022-07-29T07:19:51;100847.25;;;21.07;76.70
25232;BME280;13176;51.140;6.290;2022-07-29T07:22:17;100869.75;;;21.33;75.88
25232;BME280;13176;51.140;6.290;2022-07-29T07:24:44;100842.47;;;21.14;74.36
25232;BME280;13176;51.140;6.290;2022-07-29T07:27:10;100827.41;;;20.99;74.73
25232;BME280;13176;51.140;6.290;2022-07-29T07:29:37;100842.28;;;21.01;76.10
25232;BME280;13176;51.140;6.290;2022-07-29T07:32:09;100880.84;;;21.24;74.68
25232;BME280;13176;51.140;6.290;2022-07-29T07:34:36;100841.63;;;21.13;74.81
25232;BME280;13176;51.140;6.290;2022-07-29T07:37:04;100848.81;;;21.27;73.71
25232;BME280;13176;51.140;6.290;2022-07-29T07:39:30;100834.63;;;21.28;73.55
25232;BME280;13176;51.140;6.290;2022-07-29T07:41:57;100867.91;;;21.66;73.56
25232;BME280;13176;51.140;6.290;2022-07-29T07:44:23;100852.22;;;21.61;72.29
25232;BME280;13176;51.140;6.290;2022-07-29T07:46:50;100843.03;;;21.67;72.11
25232;BME280;13176;51.140;6.290;2022-07-29T07:49:16;100835.84;;;21.69;71.71
25232;BME280;13176;51.140;6.290;2022-07-29T07:51:43;100837.38;;;21.73;70.81
25232;BME280;13176;51.140;6.290;2022-07-29T07:54:16;100873.47;;;21.92;71.22
25232;BME280;13176;51.140;6.290;2022-07-29T07:56:45;100879.72;;;21.76;70.98
25232;BME280;13176;51.140;6.290;2022-07-29T07:59:18;100858.47;;;21.60;71.31
25232;BME280;13176;51.140;6.290;2022-07-29T08:01:44;100834.78;;;21.25;70.40
25232;BME280;13176;51.140;6.290;2022-07-29T08:04:21;100851.16;;;21.33;71.15
25232;BME280;13176;51.140;6.290;2022-07-29T08:06:54;100885.06;;;21.60;72.07
25232;BME280;13176;51.140;6.290;2022-07-29T08:09:21;100901.94;;;21.75;71.37
25232;BME280;13176;51.140;6.290;2022-07-29T08:11:56;100878.34;;;21.69;71.46
25232;BME280;13176;51.140;6.290;2022-07-29T08:14:23;100899.09;;;21.78;70.39
25232;BME280;13176;51.140;6.290;2022-07-29T08:16:50;100891.38;;;21.73;70.31
25232;BME280;13176;51.140;6.290;2022-07-29T08:19:17;100888.31;;;21.65;70.25
25232;BME280;13176;51.140;6.290;2022-07-29T08:21:44;100882.13;;;21.65;70.49
25232;BME280;13176;51.140;6.290;2022-07-29T08:24:10;100865.28;;;21.49;70.65
25232;BME280;13176;51.140;6.290;2022-07-29T08:26:55;100862.88;;;21.44;70.92
25232;BME280;13176;51.140;6.290;2022-07-29T08:29:22;100880.03;;;21.54;69.46
25232;BME280;13176;51.140;6.290;2022-07-29T08:31:48;100887.16;;;21.69;69.14
25232;BME280;13176;51.140;6.290;2022-07-29T08:34:15;100908.44;;;21.69;69.49
25232;BME280;13176;51.140;6.290;2022-07-29T08:36:41;100906.19;;;21.77;68.53
25232;BME280;13176;51.140;6.290;2022-07-29T08:39:08;100873.38;;;21.63;69.42
25232;BME280;13176;51.140;6.290;2022-07-29T08:41:35;100916.59;;;21.97;69.68
25232;BME280;13176;51.140;6.290;2022-07-29T08:44:01;100873.69;;;21.88;69.73
25232;BME280;13176;51.140;6.290;2022-07-29T08:46:28;100862.66;;;21.80;69.58
25232;BME280;13176;51.140;6.290;2022-07-29T08:48:54;100884.84;;;22.09;70.12
25232;BME280;13176;51.140;6.290;2022-07-29T08:51:21;100859.44;;;22.04;69.40
25232;BME280;13176;51.140;6.290;2022-07-29T08:53:49;100894.56;;;22.24;68.77
25232;BME280;13176;51.140;6.290;2022-07-29T08:56:18;100872.56;;;22.07;68.45
25232;BME280;13176;51.140;6.290;2022-07-29T08:58:46;100899.53;;;22.30;68.90
25232;BME280;13176;51.140;6.290;2022-07-29T09:01:21;100902.09;;;22.47;68.31
25232;BME280;13176;51.140;6.290;2022-07-29T09:04:04;100909.91;;;22.50;67.52
25232;BME280;13176;51.140;6.290;2022-07-29T09:06:36;100878.16;;;22.61;66.25
25232;BME280;13176;51.140;6.290;2022-07-29T09:09:03;100883.88;;;22.69;65.79
25232;BME280;13176;51.140;6.290;2022-07-29T09:11:32;100907.69;;;23.00;64.72
25232;BME280;13176;51.140;6.290;2022-07-29T09:13:58;100900.84;;;22.96;63.16
25232;BME280;13176;51.140;6.290;2022-07-29T09:16:25;100904.78;;;23.05;61.96
25232;BME280;13176;51.140;6.290;2022-07-29T09:19:23;100922.56;;;23.32;61.07
25232;BME280;13176;51.140;6.290;2022-07-29T09:21:50;100910.97;;;23.33;60.58
25232;BME280;13176;51.140;6.290;2022-07-29T09:24:40;100890.78;;;23.43;59.76
25232;BME280;13176;51.140;6.290;2022-07-29T09:27:23;100932.44;;;23.72;58.56
25232;BME280;13176;51.140;6.290;2022-07-29T09:30:05;100929.97;;;23.83;57.23
25232;BME280;13176;51.140;6.290;2022-07-29T09:32:33;100931.88;;;23.81;58.36
25232;BME280;13176;51.140;6.290;2022-07-29T09:35:15;100931.94;;;23.93;58.20
25232;BME280;13176;51.140;6.290;2022-07-29T09:37:43;100931.88;;;23.95;55.87
25232;BME280;13176;51.140;6.290;2022-07-29T09:40:12;100878.72;;;23.92;58.19
25232;BME280;13176;51.140;6.290;2022-07-29T09:42:39;100924.03;;;24.44;57.25
25232;BME280;13176;51.140;6.290;2022-07-29T09:45:06;100867.69;;;24.36;56.81
25232;BME280;13176;51.140;6.290;2022-07-29T09:47:47;100880.47;;;24.70;57.00
25232;BME280;13176;51.140;6.290;2022-07-29T09:50:15;100864.09;;;24.62;54.33
25232;BME280;13176;51.140;6.290;2022-07-29T09:52:50;100903.09;;;24.77;53.75
25232;BME280;13176;51.140;6.290;2022-07-29T09:55:18;100890.25;;;24.57;52.62
25232;BME280;13176;51.140;6.290;2022-07-29T09:57:46;100882.78;;;24.50;53.98
25232;BME280;13176;51.140;6.290;2022-07-29T10:00:19;100905.19;;;24.60;55.85
25232;BME280;13176;51.140;6.290;2022-07-29T10:02:46;100914.50;;;24.40;57.01
25232;BME280;13176;51.140;6.290;2022-07-29T10:05:19;100939.59;;;24.52;56.97
25232;BME280;13176;51.140;6.290;2022-07-29T10:07:54;100927.53;;;24.32;56.60
25232;BME280;13176;51.140;6.290;2022-07-29T10:10:31;100940.53;;;24.25;56.11
25232;BME280;13176;51.140;6.290;2022-07-29T10:13:07;100950.97;;;24.15;56.38
25232;BME280;13176;51.140;6.290;2022-07-29T10:15:42;100931.88;;;23.95;56.30
25232;BME280;13176;51.140;6.290;2022-07-29T10:18:11;100955.81;;;24.09;56.91
25232;BME280;13176;51.140;6.290;2022-07-29T10:20:39;100938.44;;;23.89;56.34
25232;BME280;13176;51.140;6.290;2022-07-29T10:23:05;100914.72;;;23.71;55.88
25232;BME280;13176;51.140;6.290;2022-07-29T10:25:32;100903.44;;;23.53;55.89
25232;BME280;13176;51.140;6.290;2022-07-29T10:27:59;100900.69;;;23.55;56.30
25232;BME280;13176;51.140;6.290;2022-07-29T10:30:26;100941.38;;;23.71;55.88
25232;BME280;13176;51.140;6.290;2022-07-29T10:36:02;100953.22;;;23.81;55.94
25232;BME280;13176;51.140;6.290;2022-07-29T10:44:14;100943.03;;;23.73;55.66
25232;BME280;13176;51.140;6.290;2022-07-29T10:46:45;100912.47;;;23.65;55.63
25232;BME280;13176;51.140;6.290;2022-07-29T10:49:17;100898.59;;;23.60;55.45
25232;BME280;13176;51.140;6.290;2022-07-29T10:54:17;100939.09;;;23.93;55.83
25232;BME280;13176;51.140;6.290;2022-07-29T10:56:44;100903.31;;;23.69;55.12
25232;BME280;13176;51.140;6.290;2022-07-29T11:01:47;100930.28;;;23.78;55.32
25232;BME280;13176;51.140;6.290;2022-07-29T11:07:10;100942.91;;;24.03;55.49
25232;BME280;13176;51.140;6.290;2022-07-29T11:09:37;100934.94;;;24.15;54.54
25232;BME280;13176;51.140;6.290;2022-07-29T11:15:05;100936.53;;;24.44;54.20
25232;BME280;13176;51.140;6.290;2022-07-29T11:23:29;100939.63;;;24.77;53.05
25232;BME280;13176;51.140;6.290;2022-07-29T11:31:43;100954.59;;;25.79;51.28
25232;BME280;13176;51.140;6.290;2022-07-29T11:34:31;100947.16;;;25.84;49.27
25232;BME280;13176;51.140;6.290;2022-07-29T11:39:33;100936.56;;;26.06;49.05
25232;BME280;13176;51.140;6.290;2022-07-29T11:44:59;100947.50;;;26.03;49.71
25232;BME280;13176;51.140;6.290;2022-07-29T11:50:17;100954.34;;;26.07;50.39
25232;BME280;13176;51.140;6.290;2022-07-29T11:52:52;100919.09;;;25.77;49.50
25232;BME280;13176;51.140;6.290;2022-07-29T11:55:20;100959.34;;;26.11;50.32
25232;BME280;13176;51.140;6.290;2022-07-29T11:57:59;100939.31;;;26.17;50.41
25232;BME280;13176;51.140;6.290;2022-07-29T12:00:35;100902.28;;;26.11;50.84
25232;BME280;13176;51.140;6.290;2022-07-29T12:03:04;100901.03;;;26.27;49.59
25232;BME280;13176;51.140;6.290;2022-07-29T12:05:38;100907.66;;;26.58;50.29
25232;BME280;13176;51.140;6.290;2022-07-29T12:08:16;100929.63;;;26.84;49.83
25232;BME280;13176;51.140;6.290;2022-07-29T12:10:46;100921.38;;;26.87;48.47
25232;BME280;13176;51.140;6.290;2022-07-29T12:13:15;100949.94;;;27.10;48.52
25232;BME280;13176;51.140;6.290;2022-07-29T12:15:50;100937.03;;;26.81;46.31
25232;BME280;13176;51.140;6.290;2022-07-29T12:18:18;100953.59;;;27.09;47.46
25232;BME280;13176;51.140;6.290;2022-07-29T12:20:59;100946.28;;;27.11;47.98
25232;BME280;13176;51.140;6.290;2022-07-29T12:23:30;100938.25;;;27.11;47.33
25232;BME280;13176;51.140;6.290;2022-07-29T12:26:03;100942.41;;;27.15;46.43
25232;BME280;13176;51.140;6.290;2022-07-29T12:28:37;100913.06;;;26.79;45.71
25232;BME280;13176;51.140;6.290;2022-07-29T12:31:03;100921.13;;;26.90;46.18
25232;BME280;13176;51.140;6.290;2022-07-29T12:33:31;100904.66;;;26.84;47.29
25232;BME280;13176;51.140;6.290;2022-07-29T12:35:59;100934.13;;;27.29;47.16
25232;BME280;13176;51.140;6.290;2022-07-29T12:38:42;100904.38;;;27.21;46.17
25232;BME280;13176;51.140;6.290;2022-07-29T12:41:10;100900.84;;;27.32;46.21
25232;BME280;13176;51.140;6.290;2022-07-29T12:43:36;100928.44;;;27.67;45.68
25232;BME280;13176;51.140;6.290;2022-07-29T12:46:14;100933.41;;;27.82;45.71
25232;BME280;13176;51.140;6.290;2022-07-29T12:48:42;100901.56;;;27.56;45.24
25232;BME280;13176;51.140;6.290;2022-07-29T12:51:10;100898.78;;;27.57;45.20
25232;BME280;13176;51.140;6.290;2022-07-29T12:53:38;100936.09;;;27.82;44.25
25232;BME280;13176;51.140;6.290;2022-07-29T12:56:05;100944.38;;;27.90;44.05
25232;BME280;13176;51.140;6.290;2022-07-29T12:58:52;100926.09;;;27.84;43.08
25232;BME280;13176;51.140;6.290;2022-07-29T13:01:19;100841.72;;;27.33;43.53
25232;BME280;13176;51.140;6.290;2022-07-29T13:03:54;100932.69;;;27.69;41.82
25232;BME280;13176;51.140;6.290;2022-07-29T13:06:42;100910.00;;;27.62;43.75
25232;BME280;13176;51.140;6.290;2022-07-29T13:09:17;100934.72;;;27.88;43.08
25232;BME280;13176;51.140;6.290;2022-07-29T13:11:50;100935.59;;;27.88;41.81
25232;BME280;13176;51.140;6.290;2022-07-29T13:14:55;100833.19;;;27.39;42.17
25232;BME280;13176;51.140;6.290;2022-07-29T13:17:22;100849.88;;;27.54;42.15
25232;BME280;13176;51.140;6.290;2022-07-29T13:19:51;100911.91;;;28.04;39.13
25232;BME280;13176;51.140;6.290;2022-07-29T13:22:20;100927.22;;;28.13;40.44
25232;BME280;13176;51.140;6.290;2022-07-29T13:27:15;100899.16;;;28.17;40.43
25232;BME280;13176;51.140;6.290;2022-07-29T13:29:41;100907.19;;;28.17;40.45
25232;BME280;13176;51.140;6.290;2022-07-29T13:32:08;100893.06;;;28.15;39.75
25232;BME280;13176;51.140;6.290;2022-07-29T13:34:34;100881.06;;;28.30;39.69
25232;BME280;13176;51.140;6.290;2022-07-29T13:37:01;100900.22;;;28.57;40.05
25232;BME280;13176;51.140;6.290;2022-07-29T13:39:28;100915.06;;;28.72;40.57
25232;BME280;13176;51.140;6.290;2022-07-29T13:41:54;100901.53;;;28.62;40.34
25232;BME280;13176;51.140;6.290;2022-07-29T13:44:22;100858.47;;;28.53;39.38
25232;BME280;13176;51.140;6.290;2022-07-29T13:46:49;100872.94;;;28.82;38.16
25232;BME280;13176;51.140;6.290;2022-07-29T13:49:16;100864.41;;;28.88;38.98
25232;BME280;13176;51.140;6.290;2022-07-29T13:51:42;100888.66;;;28.97;38.22
25232;BME280;13176;51.140;6.290;2022-07-29T13:54:09;100876.88;;;28.78;37.91
25232;BME280;13176;51.140;6.290;2022-07-29T13:56:35;100872.13;;;28.81;38.32